sensor_id;sensor_type;location;lat;lon;timestamp;pressure;altitude;pressure_sealevel;temperature;humidity
28927;BME280;16038;47.692;9.400;2023-03-23T00:01:29;96191.44;;;7.32;100.00
28927;BME280;16038;47.692;9.400;2023-03-23T00:04:02;96194.09;;;7.28;100.00
28927;BME280;16038;47.692;9.400;2023-03-23T00:06:28;96198.16;;;7.18;100.00
28927;BME280;16038;47.692;9.400;2023-03-23T00:08:59;96192.28;;;7.16;100.00
28927;BME280;16038;47.692;9.400;2023-03-23T00:11:29;96188.34;;;7.14;100.00
28927;BME280;16038;47.692;9.400;2023-03-23T00:13:55;96191.06;;;7.14;100.00
28927;BME280;16038;47.692;9.400;2023-03-23T00:16:22;96197.00;;;7.00;100.00
28927;BME280;16038;47.692;9.400;2023-03-23T00:18:56;96194.34;;;7.03;100.00
28927;BME280;16038;47.692;9.400;2023-03-23T00:21:22;96204.53;;;7.06;100.00
28927;BME280;16038;47.692;9.400;2023-03-23T00:24:19;96203.19;;;7.16;100.00
28927;BME280;16038;47.692;9.400;2023-03-23T00:26:45;96195.81;;;7.36;100.00
28927;BME280;16038;47.692;9.400;2023-03-23T00:29:14;96200.28;;;7.44;100.00
28927;BME280;16038;47.692;9.400;2023-03-23T00:31:40;96195.81;;;7.36;100.00
28927;BME280;16038;47.692;9.400;2023-03-23T00:34:06;96192.16;;;7.28;100.00
28927;BME280;16038;47.692;9.400;2023-03-23T00:36:32;96192.50;;;7.27;100.00
28927;BME280;16038;47.692;9.400;2023-03-23T00:39:00;96197.66;;;7.13;100.00
28927;BME280;16038;47.692;9.400;2023-03-23T00:41:26;96205.72;;;7.25;100.00
28927;BME280;16038;47.692;9.400;2023-03-23T00:43:52;96190.66;;;7.31;100.00
28927;BME280;16038;47.692;9.400;2023-03-23T00:46:18;96197.25;;;7.30;100.00
28927;BME280;16038;47.692;9.400;2023-03-23T00:48:45;96184.25;;;7.23;100.00
28927;BME280;16038;47.692;9.400;2023-03-23T00:51:11;96195.16;;;7.23;100.00
28927;BME280;16038;47.692;9.400;2023-03-23T00:53:37;96193.88;;;7.17;100.00
28927;BME280;16038;47.692;9.400;2023-03-23T00:56:03;96188.44;;;7.17;100.00
28927;BME280;16038;47.692;9.400;2023-03-23T00:58:28;96187.25;;;7.18;100.00
28927;BME280;16038;47.692;9.400;2023-03-23T01:00:53;96188.19;;;7.06;100.00
28927;BME280;16038;47.692;9.400;2023-03-23T01:03:19;96180.38;;;6.69;100.00
28927;BME280;16038;47.692;9.400;2023-03-23T01:05:45;96181.28;;;6.42;100.00
28927;BME280;16038;47.692;9.400;2023-03-23T01:08:12;96176.81;;;6.34;100.00
28927;BME280;16038;47.692;9.400;2023-03-23T01:10:37;96174.63;;;6.23;100.00
28927;BME280;16038;47.692;9.400;2023-03-23T01:13:04;96174.44;;;6.00;100.00
28927;BME280;16038;47.692;9.400;2023-03-23T01:15:29;96173.78;;;5.91;100.00
28927;BME280;16038;47.692;9.400;2023-03-23T01:17:55;96165.13;;;5.85;100.00
28927;BME280;16038;47.692;9.400;2023-03-23T01:20:21;96165.53;;;5.87;100.00
28927;BME280;16038;47.692;9.400;2023-03-23T01:22:46;96175.00;;;5.93;100.00
28927;BME280;16038;47.692;9.400;2023-03-23T01:25:12;96164.97;;;6.10;100.00
28927;BME280;16038;47.692;9.400;2023-03-23T01:27:38;96162.41;;;6.17;100.00
28927;BME280;16038;47.692;9.400;2023-03-23T01:30:04;96150.16;;;6.23;100.00
28927;BME280;16038;47.692;9.400;2023-03-23T01:32:30;96155.25;;;6.25;100.00
28927;BME280;16038;47.692;9.400;2023-03-23T01:34:56;96147.25;;;6.32;100.00
28927;BME280;16038;47.692;9.400;2023-03-23T01:37:21;96157.06;;;6.53;100.00
28927;BME280;16038;47.692;9.400;2023-03-23T01:39:54;96143.31;;;6.81;100.00
28927;BME280;16038;47.692;9.400;2023-03-23T01:42:24;96139.34;;;6.78;100.00
28927;BME280;16038;47.692;9.400;2023-03-23T01:47:14;96139.38;;;6.62;100.00
28927;BME280;16038;47.692;9.400;2023-03-23T01:49:41;96140.19;;;6.63;100.00
28927;BME280;16038;47.692;9.400;2023-03-23T01:52:10;96142.59;;;6.84;100.00
28927;BME280;16038;47.692;9.400;2023-03-23T01:54:42;96150.56;;;6.93;100.00
28927;BME280;16038;47.692;9.400;2023-03-23T01:57:11;96150.19;;;6.94;100.00
28927;BME280;16038;47.692;9.400;2023-03-23T01:59:38;96146.53;;;6.86;100.00
28927;BME280;16038;47.692;9.400;2023-03-23T02:02:05;96141.19;;;6.90;100.00
28927;BME280;16038;47.692;9.400;2023-03-23T02:04:30;96148.53;;;6.89;100.00
28927;BME280;16038;47.692;9.400;2023-03-23T02:06:57;96153.16;;;6.69;100.00
28927;BME280;16038;47.692;9.400;2023-03-23T02:09:24;96149.06;;;6.60;100.00
28927;BME280;16038;47.692;9.400;2023-03-23T02:11:50;96153.50;;;6.68;100.00
28927;BME280;16038;47.692;9.400;2023-03-23T02:14:16;96152.16;;;6.94;100.00
28927;BME280;16038;47.692;9.400;2023-03-23T02:16:48;96157.00;;;6.84;100.00
28927;BME280;16038;47.692;9.400;2023-03-23T02:19:25;96162.53;;;6.88;100.00
28927;BME280;16038;47.692;9.400;2023-03-23T02:27:07;96164.84;;;7.25;100.00
28927;BME280;16038;47.692;9.400;2023-03-23T02:34:27;96156.53;;;6.82;100.00
28927;BME280;16038;47.692;9.400;2023-03-23T02:37:03;96158.66;;;6.54;100.00
28927;BME280;16038;47.692;9.400;2023-03-23T02:39:32;96156.09;;;6.45;100.00
28927;BME280;16038;47.692;9.400;2023-03-23T02:42:03;96153.13;;;6.50;100.00
28927;BME280;16038;47.692;9.400;2023-03-23T02:44:30;96157.91;;;6.57;100.00
28927;BME280;16038;47.692;9.400;2023-03-23T02:46:57;96143.69;;;6.63;100.00
28927;BME280;16038;47.692;9.400;2023-03-23T02:49:24;96151.94;;;6.67;100.00
28927;BME280;16038;47.692;9.400;2023-03-23T02:51:50;96151.25;;;6.70;100.00
28927;BME280;16038;47.692;9.400;2023-03-23T02:54:16;96153.56;;;6.87;100.00
28927;BME280;16038;47.692;9.400;2023-03-23T02:56:43;96153.78;;;6.98;100.00
28927;BME280;16038;47.692;9.400;2023-03-23T02:59:09;96156.31;;;7.07;100.00
28927;BME280;16038;47.692;9.400;2023-03-23T03:04:20;96164.50;;;7.26;100.00
28927;BME280;16038;47.692;9.400;2023-03-23T03:06:54;96184.28;;;7.43;100.00
28927;BME280;16038;47.692;9.400;2023-03-23T03:11:55;96180.28;;;7.56;100.00
28927;BME280;16038;47.692;9.400;2023-03-23T03:14:34;96181.69;;;7.50;100.00
28927;BME280;16038;47.692;9.400;2023-03-23T03:17:07;96182.41;;;7.08;100.00
28927;BME280;16038;47.692;9.400;2023-03-23T03:19:36;96185.91;;;7.08;100.00
28927;BME280;16038;47.692;9.400;2023-03-23T03:22:03;96182.06;;;7.10;100.00
28927;BME280;16038;47.692;9.400;2023-03-23T03:24:30;96202.69;;;7.30;100.00
28927;BME280;16038;47.692;9.400;2023-03-23T03:26:56;96196.19;;;7.35;100.00
28927;BME280;16038;47.692;9.400;2023-03-23T03:29:25;96201.13;;;7.29;100.00
28927;BME280;16038;47.692;9.400;2023-03-23T03:31:52;96205.72;;;7.44;100.00
28927;BME280;16038;47.692;9.400;2023-03-23T03:34:20;96205.09;;;7.51;100.00
28927;BME280;16038;47.692;9.400;2023-03-23T03:36:47;96178.25;;;7.53;100.00
28927;BME280;16038;47.692;9.400;2023-03-23T03:39:13;96160.16;;;6.86;100.00
28927;BME280;16038;47.692;9.400;2023-03-23T03:41:41;96170.75;;;6.56;100.00
28927;BME280;16038;47.692;9.400;2023-03-23T03:44:06;96167.56;;;6.70;100.00
28927;BME280;16038;47.692;9.400;2023-03-23T03:46:32;96152.91;;;6.59;100.00
28927;BME280;16038;47.692;9.400;2023-03-23T03:48:58;96136.75;;;6.66;100.00
28927;BME280;16038;47.692;9.400;2023-03-23T03:51:24;96128.13;;;6.80;100.00
28927;BME280;16038;47.692;9.400;2023-03-23T03:53:50;96133.47;;;7.12;100.00
28927;BME280;16038;47.692;9.400;2023-03-23T03:56:15;96117.25;;;7.38;100.00
28927;BME280;16038;47.692;9.400;2023-03-23T03:58:41;96106.38;;;7.38;100.00
28927;BME280;16038;47.692;9.400;2023-03-23T04:01:07;96121.25;;;7.44;100.00
28927;BME280;16038;47.692;9.400;2023-03-23T04:03:35;96121.47;;;7.55;100.00
28927;BME280;16038;47.692;9.400;2023-03-23T04:06:00;96123.19;;;7.63;100.00
28927;BME280;16038;47.692;9.400;2023-03-23T04:08:26;96119.41;;;7.72;100.00
28927;BME280;16038;47.692;9.400;2023-03-23T04:10:51;96125.72;;;7.99;100.00
28927;BME280;16038;47.692;9.400;2023-03-23T04:13:17;96122.88;;;8.38;100.00
28927;BME280;16038;47.692;9.400;2023-03-23T04:15:46;96132.75;;;8.46;100.00
28927;BME280;16038;47.692;9.400;2023-03-23T04:18:11;96127.75;;;8.48;100.00
28927;BME280;16038;47.692;9.400;2023-03-23T04:20:37;96126.00;;;8.40;100.00
28927;BME280;16038;47.692;9.400;2023-03-23T04:23:02;96125.00;;;8.48;100.00
28927;BME280;16038;47.692;9.400;2023-03-23T04:25:28;96109.84;;;8.51;100.00
28927;BME280;16038;47.692;9.400;2023-03-23T04:27:53;96114.56;;;8.54;100.00
28927;BME280;16038;47.692;9.400;2023-03-23T04:30:23;96101.19;;;8.45;100.00
28927;BME280;16038;47.692;9.400;2023-03-23T04:32:49;96101.41;;;8.36;100.00
28927;BME280;16038;47.692;9.400;2023-03-23T04:35:16;96094.94;;;8.21;100.00
28927;BME280;16038;47.692;9.400;2023-03-23T04:37:41;96086.44;;;8.27;100.00
28927;BME280;16038;47.692;9.400;2023-03-23T04:40:08;96086.28;;;8.16;100.00
28927;BME280;16038;47.692;9.400;2023-03-23T04:42:39;96094.41;;;8.12;100.00
28927;BME280;16038;47.692;9.400;2023-03-23T04:45:06;96094.31;;;8.32;100.00
28927;BME280;16038;47.692;9.400;2023-03-23T04:47:33;96103.22;;;8.52;100.00
28927;BME280;16038;47.692;9.400;2023-03-23T04:49:59;96096.69;;;8.60;100.00
28927;BME280;16038;47.692;9.400;2023-03-23T04:52:25;96100.38;;;8.71;100.00
28927;BME280;16038;47.692;9.400;2023-03-23T04:54:51;96106.31;;;8.77;100.00
28927;BME280;16038;47.692;9.400;2023-03-23T04:57:16;96104.38;;;8.77;100.00
28927;BME280;16038;47.692;9.400;2023-03-23T04:59:42;96101.53;;;8.70;100.00
28927;BME280;16038;47.692;9.400;2023-03-23T05:02:08;96099.53;;;8.67;100.00
28927;BME280;16038;47.692;9.400;2023-03-23T05:04:34;96103.44;;;8.66;100.00
28927;BME280;16038;47.692;9.400;2023-03-23T05:06:59;96095.63;;;8.65;100.00
28927;BME280;16038;47.692;9.400;2023-03-23T05:09:24;96088.06;;;8.54;100.00
28927;BME280;16038;47.692;9.400;2023-03-23T05:11:50;96094.69;;;8.57;100.00
28927;BME280;16038;47.692;9.400;2023-03-23T05:14:15;96089.25;;;8.57;100.00
28927;BME280;16038;47.692;9.400;2023-03-23T05:16:41;96077.13;;;8.54;100.00
28927;BME280;16038;47.692;9.400;2023-03-23T05:19:06;96068.94;;;8.54;100.00
28927;BME280;16038;47.692;9.400;2023-03-23T05:21:33;96075.28;;;8.62;100.00
28927;BME280;16038;47.692;9.400;2023-03-23T05:23:59;96079.53;;;8.59;100.00
28927;BME280;16038;47.692;9.400;2023-03-23T05:26:26;96086.50;;;8.57;100.00
28927;BME280;16038;47.692;9.400;2023-03-23T05:28:54;96081.44;;;8.55;100.00
28927;BME280;16038;47.692;9.400;2023-03-23T05:31:19;96087.06;;;8.66;100.00
28927;BME280;16038;47.692;9.400;2023-03-23T05:33:44;96089.97;;;8.80;100.00
28927;BME280;16038;47.692;9.400;2023-03-23T05:36:10;96089.28;;;8.87;100.00
28927;BME280;16038;47.692;9.400;2023-03-23T05:38:38;96092.03;;;8.91;100.00
28927;BME280;16038;47.692;9.400;2023-03-23T05:41:05;96096.00;;;8.93;100.00
28927;BME280;16038;47.692;9.400;2023-03-23T05:43:31;96093.59;;;8.88;100.00
28927;BME280;16038;47.692;9.400;2023-03-23T05:45:56;96094.38;;;8.89;100.00
28927;BME280;16038;47.692;9.400;2023-03-23T05:48:22;96094.28;;;9.12;100.00
28927;BME280;16038;47.692;9.400;2023-03-23T05:50:47;96096.25;;;9.15;100.00
28927;BME280;16038;47.692;9.400;2023-03-23T05:53:12;96093.63;;;9.22;100.00
28927;BME280;16038;47.692;9.400;2023-03-23T05:55:38;96102.16;;;9.17;100.00
28927;BME280;16038;47.692;9.400;2023-03-23T05:58:03;96100.84;;;9.07;100.00
28927;BME280;16038;47.692;9.400;2023-03-23T06:00:28;96106.56;;;9.29;100.00
28927;BME280;16038;47.692;9.400;2023-03-23T06:02:55;96094.31;;;9.49;100.00
28927;BME280;16038;47.692;9.400;2023-03-23T06:05:21;96106.53;;;9.63;100.00
28927;BME280;16038;47.692;9.400;2023-03-23T06:07:47;96108.66;;;9.76;100.00
28927;BME280;16038;47.692;9.400;2023-03-23T06:10:13;96104.84;;;9.88;100.00
28927;BME280;16038;47.692;9.400;2023-03-23T06:12:39;96108.88;;;10.02;100.00
28927;BME280;16038;47.692;9.400;2023-03-23T06:15:05;96125.00;;;10.10;100.00
28927;BME280;16038;47.692;9.400;2023-03-23T06:17:32;96120.75;;;10.17;98.71
28927;BME280;16038;47.692;9.400;2023-03-23T06:19:57;96123.03;;;10.11;99.23
28927;BME280;16038;47.692;9.400;2023-03-23T06:22:22;96133.91;;;10.04;100.00
28927;BME280;16038;47.692;9.400;2023-03-23T06:24:48;96136.31;;;10.09;99.20
28927;BME280;16038;47.692;9.400;2023-03-23T06:27:14;96138.66;;;10.07;99.55
28927;BME280;16038;47.692;9.400;2023-03-23T06:29:40;96133.91;;;10.04;99.84
28927;BME280;16038;47.692;9.400;2023-03-23T06:32:05;96134.66;;;10.01;100.00
28927;BME280;16038;47.692;9.400;2023-03-23T06:34:31;96127.22;;;9.98;99.40
28927;BME280;16038;47.692;9.400;2023-03-23T06:36:57;96130.06;;;9.33;100.00
28927;BME280;16038;47.692;9.400;2023-03-23T06:39:22;96124.91;;;8.98;100.00
28927;BME280;16038;47.692;9.400;2023-03-23T06:41:48;96126.50;;;8.99;100.00
28927;BME280;16038;47.692;9.400;2023-03-23T06:44:14;96126.50;;;8.99;100.00
28927;BME280;16038;47.692;9.400;2023-03-23T06:46:40;96121.88;;;9.03;100.00
28927;BME280;16038;47.692;9.400;2023-03-23T06:49:06;96121.78;;;8.69;100.00
28927;BME280;16038;47.692;9.400;2023-03-23T06:51:31;96125.03;;;8.78;100.00
28927;BME280;16038;47.692;9.400;2023-03-23T06:53:57;96118.91;;;8.85;100.00
28927;BME280;16038;47.692;9.400;2023-03-23T06:56:23;96115.06;;;8.90;100.00
28927;BME280;16038;47.692;9.400;2023-03-23T06:58:48;96125.28;;;8.96;100.00
28927;BME280;16038;47.692;9.400;2023-03-23T07:01:13;96121.41;;;9.28;100.00
28927;BME280;16038;47.692;9.400;2023-03-23T07:03:40;96120.09;;;9.52;100.00
28927;BME280;16038;47.692;9.400;2023-03-23T07:06:06;96119.31;;;9.89;100.00
28927;BME280;16038;47.692;9.400;2023-03-23T07:08:32;96115.94;;;10.06;97.86
28927;BME280;16038;47.692;9.400;2023-03-23T07:10:57;96120.41;;;10.22;96.39
28927;BME280;16038;47.692;9.400;2023-03-23T07:13:22;96115.44;;;10.35;96.43
28927;BME280;16038;47.692;9.400;2023-03-23T07:15:48;96119.91;;;10.54;96.23
28927;BME280;16038;47.692;9.400;2023-03-23T07:18:14;96123.16;;;10.74;95.07
28927;BME280;16038;47.692;9.400;2023-03-23T07:20:39;96114.72;;;11.00;94.79
28927;BME280;16038;47.692;9.400;2023-03-23T07:23:05;96121.88;;;11.30;93.28
28927;BME280;16038;47.692;9.400;2023-03-23T07:25:31;96108.31;;;11.80;84.67
28927;BME280;16038;47.692;9.400;2023-03-23T07:27:58;96115.78;;;11.80;85.93
28927;BME280;16038;47.692;9.400;2023-03-23T07:30:23;96121.66;;;11.89;88.89
28927;BME280;16038;47.692;9.400;2023-03-23T07:32:48;96133.50;;;12.43;92.00
28927;BME280;16038;47.692;9.400;2023-03-23T07:35:14;96141.34;;;12.56;90.36
28927;BME280;16038;47.692;9.400;2023-03-23T07:37:39;96140.56;;;12.66;88.91
28927;BME280;16038;47.692;9.400;2023-03-23T07:40:05;96139.38;;;12.78;87.00
28927;BME280;16038;47.692;9.400;2023-03-23T07:42:33;96149.97;;;12.90;85.64
28927;BME280;16038;47.692;9.400;2023-03-23T07:44:58;96158.59;;;12.89;84.35
28927;BME280;16038;47.692;9.400;2023-03-23T07:47:24;96158.19;;;13.05;84.72
28927;BME280;16038;47.692;9.400;2023-03-23T07:49:49;96161.28;;;13.21;83.33
28927;BME280;16038;47.692;9.400;2023-03-23T07:52:15;96158.50;;;13.43;81.30
28927;BME280;16038;47.692;9.400;2023-03-23T07:54:40;96163.50;;;13.69;78.17
28927;BME280;16038;47.692;9.400;2023-03-23T07:57:05;96160.97;;;14.00;76.12
28927;BME280;16038;47.692;9.400;2023-03-23T07:59:31;96157.22;;;14.36;73.45
28927;BME280;16038;47.692;9.400;2023-03-23T08:01:56;96155.34;;;14.78;68.92
28927;BME280;16038;47.692;9.400;2023-03-23T08:04:23;96163.75;;;15.05;65.55
28927;BME280;16038;47.692;9.400;2023-03-23T08:06:48;96170.28;;;15.22;64.09
28927;BME280;16038;47.692;9.400;2023-03-23T08:09:14;96174.03;;;15.39;62.73
28927;BME280;16038;47.692;9.400;2023-03-23T08:11:40;96179.44;;;15.49;61.78
28927;BME280;16038;47.692;9.400;2023-03-23T08:14:06;96181.34;;;15.56;61.04
28927;BME280;16038;47.692;9.400;2023-03-23T08:16:32;96185.06;;;15.73;60.39
28927;BME280;16038;47.692;9.400;2023-03-23T08:18:57;96184.25;;;15.42;61.33
28927;BME280;16038;47.692;9.400;2023-03-23T08:21:23;96191.75;;;15.79;61.15
28927;BME280;16038;47.692;9.400;2023-03-23T08:23:48;96193.84;;;15.99;59.89
28927;BME280;16038;47.692;9.400;2023-03-23T08:26:14;96196.19;;;16.00;59.77
28927;BME280;16038;47.692;9.400;2023-03-23T08:28:40;96186.22;;;15.79;61.01
28927;BME280;16038;47.692;9.400;2023-03-23T08:31:06;96192.44;;;15.87;59.99
28927;BME280;16038;47.692;9.400;2023-03-23T08:33:32;96193.34;;;15.77;60.57
28927;BME280;16038;47.692;9.400;2023-03-23T08:35:58;96200.22;;;15.61;60.95
28927;BME280;16038;47.692;9.400;2023-03-23T08:38:24;96204.13;;;15.64;60.95
28927;BME280;16038;47.692;9.400;2023-03-23T08:40:49;96197.38;;;15.68;62.25
28927;BME280;16038;47.692;9.400;2023-03-23T08:43:15;96208.81;;;15.67;63.12
28927;BME280;16038;47.692;9.400;2023-03-23T08:45:40;96205.44;;;15.52;63.17
28927;BME280;16038;47.692;9.400;2023-03-23T08:48:06;96207.41;;;15.52;61.65
28927;BME280;16038;47.692;9.400;2023-03-23T08:50:32;96211.75;;;15.53;60.50
28927;BME280;16038;47.692;9.400;2023-03-23T08:52:58;96212.66;;;15.39;60.22
28927;BME280;16038;47.692;9.400;2023-03-23T08:55:23;96213.84;;;15.41;59.30
28927;BME280;16038;47.692;9.400;2023-03-23T08:57:49;96220.69;;;15.26;60.63
28927;BME280;16038;47.692;9.400;2023-03-23T09:00:16;96213.97;;;14.82;61.00
28927;BME280;16038;47.692;9.400;2023-03-23T09:02:48;96217.13;;;14.84;62.17
28927;BME280;16038;47.692;9.400;2023-03-23T09:05:15;96217.03;;;14.95;62.19
28927;BME280;16038;47.692;9.400;2023-03-23T09:07:41;96221.28;;;15.03;60.99
28927;BME280;16038;47.692;9.400;2023-03-23T09:10:07;96228.72;;;15.09;62.66
28927;BME280;16038;47.692;9.400;2023-03-23T09:12:32;96219.53;;;15.23;62.95
28927;BME280;16038;47.692;9.400;2023-03-23T09:14:58;96228.25;;;15.18;63.21
28927;BME280;16038;47.692;9.400;2023-03-23T09:17:23;96230.78;;;15.43;59.92
28927;BME280;16038;47.692;9.400;2023-03-23T09:19:48;96230.63;;;15.58;59.64
28927;BME280;16038;47.692;9.400;2023-03-23T09:22:14;96229.41;;;15.59;60.14
28927;BME280;16038;47.692;9.400;2023-03-23T09:24:40;96239.34;;;15.53;59.80
28927;BME280;16038;47.692;9.400;2023-03-23T09:27:05;96239.34;;;15.53;58.36
28927;BME280;16038;47.692;9.400;2023-03-23T09:29:31;96237.06;;;15.44;59.59
28927;BME280;16038;47.692;9.400;2023-03-23T09:31:56;96227.22;;;15.43;58.87
28927;BME280;16038;47.692;9.400;2023-03-23T09:34:21;96228.97;;;15.64;58.41
28927;BME280;16038;47.692;9.400;2023-03-23T09:36:47;96228.75;;;15.85;59.13
28927;BME280;16038;47.692;9.400;2023-03-23T09:39:13;96225.00;;;16.03;58.52
28927;BME280;16038;47.692;9.400;2023-03-23T09:41:55;96234.91;;;16.28;57.48
28927;BME280;16038;47.692;9.400;2023-03-23T09:44:34;96232.75;;;16.42;57.34
28927;BME280;16038;47.692;9.400;2023-03-23T09:47:47;96231.84;;;16.49;57.50
28927;BME280;16038;47.692;9.400;2023-03-23T09:49:53;96236.50;;;16.56;59.43
28927;BME280;16038;47.692;9.400;2023-03-23T09:52:20;96238.38;;;16.35;61.33
28927;BME280;16038;47.692;9.400;2023-03-23T09:57:31;96230.97;;;16.29;59.46
28927;BME280;16038;47.692;9.400;2023-03-23T10:00:01;96229.22;;;16.69;55.49
28927;BME280;16038;47.692;9.400;2023-03-23T10:02:36;96226.66;;;16.55;55.58
28927;BME280;16038;47.692;9.400;2023-03-23T10:07:47;96234.06;;;16.89;54.74
28927;BME280;16038;47.692;9.400;2023-03-23T10:10:13;96231.72;;;16.87;55.09
28927;BME280;16038;47.692;9.400;2023-03-23T10:15:13;96237.16;;;16.94;53.82
28927;BME280;16038;47.692;9.400;2023-03-23T10:23:09;96248.09;;;17.02;54.15
28927;BME280;16038;47.692;9.400;2023-03-23T10:25:42;96244.88;;;16.76;53.32
28927;BME280;16038;47.692;9.400;2023-03-23T10:28:11;96253.03;;;16.59;53.90
28927;BME280;16038;47.692;9.400;2023-03-23T10:30:41;96251.03;;;16.60;53.58
28927;BME280;16038;47.692;9.400;2023-03-23T10:33:29;96256.38;;;16.74;52.57
28927;BME280;16038;47.692;9.400;2023-03-23T10:35:57;96258.97;;;16.58;52.00
28927;BME280;16038;47.692;9.400;2023-03-23T10:39:11;96247.53;;;17.34;50.45
28927;BME280;16038;47.692;9.400;2023-03-23T10:41:18;96245.66;;;17.51;49.63
28927;BME280;16038;47.692;9.400;2023-03-23T10:43:44;96241.66;;;17.52;49.88
28927;BME280;16038;47.692;9.400;2023-03-23T10:46:25;96241.47;;;17.63;49.93
28927;BME280;16038;47.692;9.400;2023-03-23T10:48:51;96252.91;;;17.88;48.97
28927;BME280;16038;47.692;9.400;2023-03-23T10:51:19;96260.38;;;18.11;47.88
28927;BME280;16038;47.692;9.400;2023-03-23T10:53:50;96254.66;;;17.99;48.47
28927;BME280;16038;47.692;9.400;2023-03-23T10:56:20;96256.94;;;17.40;49.58
28927;BME280;16038;47.692;9.400;2023-03-23T10:58:47;96253.38;;;17.83;48.76
28927;BME280;16038;47.692;9.400;2023-03-23T11:01:12;96258.13;;;17.83;48.93
28927;BME280;16038;47.692;9.400;2023-03-23T11:03:46;96261.72;;;18.03;48.80
28927;BME280;16038;47.692;9.400;2023-03-23T11:06:20;96257.22;;;17.89;48.20
28927;BME280;16038;47.692;9.400;2023-03-23T11:08:49;96260.88;;;17.86;48.36
28927;BME280;16038;47.692;9.400;2023-03-23T11:11:17;96262.69;;;17.93;48.04
28927;BME280;16038;47.692;9.400;2023-03-23T11:13:47;96254.47;;;17.66;49.28
28927;BME280;16038;47.692;9.400;2023-03-23T11:16:32;96257.97;;;17.70;49.11
28927;BME280;16038;47.692;9.400;2023-03-23T11:18:59;96258.47;;;17.65;49.15
28927;BME280;16038;47.692;9.400;2023-03-23T11:21:25;96259.84;;;17.53;49.33
28927;BME280;16038;47.692;9.400;2023-03-23T11:23:56;96254.28;;;17.76;48.46
28927;BME280;16038;47.692;9.400;2023-03-23T11:26:27;96245.06;;;17.83;47.58
28927;BME280;16038;47.692;9.400;2023-03-23T11:28:57;96248.78;;;17.96;46.81
28927;BME280;16038;47.692;9.400;2023-03-23T11:31:30;96252.28;;;17.77;47.09
28927;BME280;16038;47.692;9.400;2023-03-23T11:34:01;96252.31;;;17.53;46.99
28927;BME280;16038;47.692;9.400;2023-03-23T11:36:30;96255.78;;;17.61;46.64
28927;BME280;16038;47.692;9.400;2023-03-23T11:38:55;96250.59;;;17.63;47.31
28927;BME280;16038;47.692;9.400;2023-03-23T11:41:22;96255.06;;;17.77;48.59
28927;BME280;16038;47.692;9.400;2023-03-23T11:43:50;96255.56;;;17.48;50.20
28927;BME280;16038;47.692;9.400;2023-03-23T11:46:25;96260.91;;;17.15;50.57
28927;BME280;16038;47.692;9.400;2023-03-23T11:48:59;96252.25;;;17.13;50.42
28927;BME280;16038;47.692;9.400;2023-03-23T11:51:34;96258.59;;;17.10;49.71
28927;BME280;16038;47.692;9.400;2023-03-23T11:56:33;96253.19;;;17.27;50.63
28927;BME280;16038;47.692;9.400;2023-03-23T11:58:59;96248.03;;;17.29;50.04
28927;BME280;16038;47.692;9.400;2023-03-23T12:09:22;96245.84;;;18.24;45.88
28927;BME280;16038;47.692;9.400;2023-03-23T12:12:04;96242.75;;;18.38;45.26
28927;BME280;16038;47.692;9.400;2023-03-23T12:14:35;96232.97;;;18.33;45.03
28927;BME280;16038;47.692;9.400;2023-03-23T12:17:05;96232.19;;;18.33;44.71
28927;BME280;16038;47.692;9.400;2023-03-23T12:24:51;96228.75;;;18.82;42.29
28927;BME280;16038;47.692;9.400;2023-03-23T12:38:20;96202.00;;;18.55;43.44
28927;BME280;16038;47.692;9.400;2023-03-23T12:40:56;96208.34;;;19.21;42.21
28927;BME280;16038;47.692;9.400;2023-03-23T12:48:32;96220.19;;;18.56;43.10
28927;BME280;16038;47.692;9.400;2023-03-23T12:51:02;96213.81;;;18.92;42.45
28927;BME280;16038;47.692;9.400;2023-03-23T12:53:31;96216.63;;;18.56;43.25
28927;BME280;16038;47.692;9.400;2023-03-23T12:56:16;96205.06;;;18.94;43.01
28927;BME280;16038;47.692;9.400;2023-03-23T12:58:44;96200.91;;;19.18;42.20
28927;BME280;16038;47.692;9.400;2023-03-23T13:01:11;96201.56;;;19.22;42.52
28927;BME280;16038;47.692;9.400;2023-03-23T13:03:58;96199.56;;;19.23;42.19
28927;BME280;16038;47.692;9.400;2023-03-23T13:06:29;96199.31;;;19.17;42.27
28927;BME280;16038;47.692;9.400;2023-03-23T13:11:36;96179.22;;;19.13;42.50
28927;BME280;16038;47.692;9.400;2023-03-23T13:24:15;96159.50;;;18.58;43.79
28927;BME280;16038;47.692;9.400;2023-03-23T13:26:42;96165.06;;;18.58;44.46
28927;BME280;16038;47.692;9.400;2023-03-23T13:29:12;96156.94;;;18.67;44.73
28927;BME280;16038;47.692;9.400;2023-03-23T13:31:39;96149.63;;;19.06;42.80
28927;BME280;16038;47.692;9.400;2023-03-23T13:36:58;96155.03;;;18.64;43.61
28927;BME280;16038;47.692;9.400;2023-03-23T13:39:35;96145.91;;;18.47;43.83
28927;BME280;16038;47.692;9.400;2023-03-23T13:44:27;96155.38;;;18.50;44.63
28927;BME280;16038;47.692;9.400;2023-03-23T13:46:53;96161.25;;;18.36;45.31
28927;BME280;16038;47.692;9.400;2023-03-23T13:49:20;96167.63;;;18.16;45.13
28927;BME280;16038;47.692;9.400;2023-03-23T13:51:58;96166.16;;;17.91;45.44
28927;BME280;16038;47.692;9.400;2023-03-23T13:54:30;96167.22;;;17.77;46.30
28927;BME280;16038;47.692;9.400;2023-03-23T13:56:57;96157.56;;;17.66;46.19
28927;BME280;16038;47.692;9.400;2023-03-23T13:59:33;96159.06;;;17.50;47.76
28927;BME280;16038;47.692;9.400;2023-03-23T14:04:44;96151.84;;;17.13;48.41
28927;BME280;16038;47.692;9.400;2023-03-23T14:07:11;96152.53;;;16.97;49.49
28927;BME280;16038;47.692;9.400;2023-03-23T14:09:42;96156.53;;;17.16;49.97
28927;BME280;16038;47.692;9.400;2023-03-23T14:12:28;96155.19;;;17.24;50.01
28927;BME280;16038;47.692;9.400;2023-03-23T14:14:57;96157.94;;;17.04;49.98
28927;BME280;16038;47.692;9.400;2023-03-23T14:17:31;96149.06;;;16.93;52.23
28927;BME280;16038;47.692;9.400;2023-03-23T14:19:58;96145.41;;;16.72;54.09
28927;BME280;16038;47.692;9.400;2023-03-23T14:22:31;96149.69;;;16.77;54.58
28927;BME280;16038;47.692;9.400;2023-03-23T14:25:01;96144.41;;;16.35;54.43
28927;BME280;16038;47.692;9.400;2023-03-23T14:27:33;96141.34;;;16.30;55.04